sensor_id;sensor_type;location;lat;lon;timestamp;temperature;humidity
68746;SHT31;55731;45.456;11.064;2022-10-10T00:00:38;19.64;48.33
68746;SHT31;55731;45.456;11.064;2022-10-10T00:03:15;19.64;48.32
68746;SHT31;55731;45.456;11.064;2022-10-10T00:05:51;19.66;48.22
68746;SHT31;55731;45.456;11.064;2022-10-10T00:08:27;19.66;48.19
68746;SHT31;55731;45.456;11.064;2022-10-10T00:11:04;19.66;48.19
68746;SHT31;55731;45.456;11.064;2022-10-10T00:13:42;19.67;48.11
68746;SHT31;55731;45.456;11.064;2022-10-10T00:16:20;19.68;48.19
68746;SHT31;55731;45.456;11.064;2022-10-10T00:18:57;19.68;48.15
68746;SHT31;55731;45.456;11.064;2022-10-10T00:21:33;19.68;48.24
68746;SHT31;55731;45.456;11.064;2022-10-10T00:24:10;19.67;48.27
68746;SHT31;55731;45.456;11.064;2022-10-10T00:26:47;19.67;48.36
68746;SHT31;55731;45.456;11.064;2022-10-10T00:29:23;19.68;48.40
68746;SHT31;55731;45.456;11.064;2022-10-10T00:32:01;19.66;48.48
68746;SHT31;55731;45.456;11.064;2022-10-10T00:34:38;19.65;48.40
68746;SHT31;55731;45.456;11.064;2022-10-10T00:37:14;19.65;48.51
68746;SHT31;55731;45.456;11.064;2022-10-10T00:39:50;19.64;48.57
68746;SHT31;55731;45.456;11.064;2022-10-10T00:42:27;19.65;48.61
68746;SHT31;55731;45.456;11.064;2022-10-10T00:45:25;19.64;48.48
68746;SHT31;55731;45.456;11.064;2022-10-10T00:48:08;19.64;48.62
68746;SHT31;55731;45.456;11.064;2022-10-10T00:50:49;19.64;48.55
68746;SHT31;55731;45.456;11.064;2022-10-10T00:53:31;19.64;48.58
68746;SHT31;55731;45.456;11.064;2022-10-10T00:56:12;19.65;48.74
68746;SHT31;55731;45.456;11.064;2022-10-10T00:58:51;19.64;48.83
68746;SHT31;55731;45.456;11.064;2022-10-10T01:01:33;19.64;48.90
68746;SHT31;55731;45.456;11.064;2022-10-10T01:07:15;19.61;48.99
68746;SHT31;55731;45.456;11.064;2022-10-10T01:09:56;19.62;49.05
68746;SHT31;55731;45.456;11.064;2022-10-10T01:12:39;19.60;49.21
68746;SHT31;55731;45.456;11.064;2022-10-10T01:15:41;19.58;49.26
68746;SHT31;55731;45.456;11.064;2022-10-10T01:18:30;19.57;49.20
68746;SHT31;55731;45.456;11.064;2022-10-10T01:21:22;19.59;49.03
68746;SHT31;55731;45.456;11.064;2022-10-10T01:30:19;19.53;49.02
68746;SHT31;55731;45.456;11.064;2022-10-10T01:32:59;19.54;48.89
68746;SHT31;55731;45.456;11.064;2022-10-10T01:35:48;19.56;48.74
68746;SHT31;55731;45.456;11.064;2022-10-10T01:38:33;19.58;48.53
68746;SHT31;55731;45.456;11.064;2022-10-10T01:41:19;19.57;48.28
68746;SHT31;55731;45.456;11.064;2022-10-10T01:44:01;19.56;48.46
68746;SHT31;55731;45.456;11.064;2022-10-10T01:46:38;19.55;48.55
68746;SHT31;55731;45.456;11.064;2022-10-10T01:49:14;19.55;48.52
68746;SHT31;55731;45.456;11.064;2022-10-10T01:51:54;19.55;48.50
68746;SHT31;55731;45.456;11.064;2022-10-10T01:54:53;19.54;48.60
68746;SHT31;55731;45.456;11.064;2022-10-10T01:57:52;19.51;48.75
68746;SHT31;55731;45.456;11.064;2022-10-10T02:00:47;19.47;48.79
68746;SHT31;55731;45.456;11.064;2022-10-10T02:03:30;19.44;48.89
68746;SHT31;55731;45.456;11.064;2022-10-10T02:06:18;19.41;48.80
68746;SHT31;55731;45.456;11.064;2022-10-10T02:09:08;19.39;48.73
68746;SHT31;55731;45.456;11.064;2022-10-10T02:11:51;19.37;48.82
68746;SHT31;55731;45.456;11.064;2022-10-10T02:14:29;19.36;48.96
68746;SHT31;55731;45.456;11.064;2022-10-10T02:17:12;19.34;49.08
68746;SHT31;55731;45.456;11.064;2022-10-10T02:19:50;19.33;49.12
68746;SHT31;55731;45.456;11.064;2022-10-10T02:22:31;19.33;49.07
68746;SHT31;55731;45.456;11.064;2022-10-10T02:25:09;19.32;49.01
68746;SHT31;55731;45.456;11.064;2022-10-10T02:27:47;19.30;48.86
68746;SHT31;55731;45.456;11.064;2022-10-10T02:30:36;19.30;48.87
68746;SHT31;55731;45.456;11.064;2022-10-10T02:33:18;19.29;48.83
68746;SHT31;55731;45.456;11.064;2022-10-10T02:36:05;19.29;48.86
68746;SHT31;55731;45.456;11.064;2022-10-10T02:38:42;19.27;48.51
68746;SHT31;55731;45.456;11.064;2022-10-10T02:41:21;19.28;48.57
68746;SHT31;55731;45.456;11.064;2022-10-10T02:43:59;19.26;48.60
68746;SHT31;55731;45.456;11.064;2022-10-10T02:46:37;19.26;48.60
68746;SHT31;55731;45.456;11.064;2022-10-10T02:49:18;19.26;48.42
68746;SHT31;55731;45.456;11.064;2022-10-10T02:51:59;19.25;48.30
68746;SHT31;55731;45.456;11.064;2022-10-10T02:54:37;19.26;48.10
68746;SHT31;55731;45.456;11.064;2022-10-10T02:57:14;19.27;48.18
68746;SHT31;55731;45.456;11.064;2022-10-10T02:59:50;19.28;48.00
68746;SHT31;55731;45.456;11.064;2022-10-10T03:02:27;19.28;47.85
68746;SHT31;55731;45.456;11.064;2022-10-10T03:05:04;19.29;47.95
68746;SHT31;55731;45.456;11.064;2022-10-10T03:07:43;19.28;47.74
68746;SHT31;55731;45.456;11.064;2022-10-10T03:10:19;19.30;47.63
68746;SHT31;55731;45.456;11.064;2022-10-10T03:12:56;19.33;47.16
68746;SHT31;55731;45.456;11.064;2022-10-10T03:15:34;19.36;47.09
68746;SHT31;55731;45.456;11.064;2022-10-10T03:18:11;19.39;46.83
68746;SHT31;55731;45.456;11.064;2022-10-10T03:20:49;19.42;46.71
68746;SHT31;55731;45.456;11.064;2022-10-10T03:23:25;19.44;46.69
68746;SHT31;55731;45.456;11.064;2022-10-10T03:26:03;19.46;46.62
68746;SHT31;55731;45.456;11.064;2022-10-10T03:28:39;19.48;46.80
68746;SHT31;55731;45.456;11.064;2022-10-10T03:31:16;19.48;46.42
68746;SHT31;55731;45.456;11.064;2022-10-10T03:33:53;19.50;46.34
68746;SHT31;55731;45.456;11.064;2022-10-10T03:36:29;19.51;46.41
68746;SHT31;55731;45.456;11.064;2022-10-10T03:39:06;19.51;46.17
68746;SHT31;55731;45.456;11.064;2022-10-10T03:41:43;19.52;46.00
68746;SHT31;55731;45.456;11.064;2022-10-10T03:44:20;19.53;45.74
68746;SHT31;55731;45.456;11.064;2022-10-10T03:46:57;19.53;45.82
68746;SHT31;55731;45.456;11.064;2022-10-10T03:49:34;19.55;45.48
68746;SHT31;55731;45.456;11.064;2022-10-10T03:52:10;19.56;45.42
68746;SHT31;55731;45.456;11.064;2022-10-10T03:54:46;19.57;45.08
68746;SHT31;55731;45.456;11.064;2022-10-10T03:57:23;19.58;45.15
68746;SHT31;55731;45.456;11.064;2022-10-10T03:59:59;19.59;45.12
68746;SHT31;55731;45.456;11.064;2022-10-10T04:02:40;19.61;45.03
68746;SHT31;55731;45.456;11.064;2022-10-10T04:05:18;19.62;44.93
68746;SHT31;55731;45.456;11.064;2022-10-10T04:07:54;19.63;44.92
68746;SHT31;55731;45.456;11.064;2022-10-10T04:10:30;19.63;44.83
68746;SHT31;55731;45.456;11.064;2022-10-10T04:13:07;19.63;45.06
68746;SHT31;55731;45.456;11.064;2022-10-10T04:15:43;19.64;46.38
68746;SHT31;55731;45.456;11.064;2022-10-10T04:18:22;19.60;48.82
68746;SHT31;55731;45.456;11.064;2022-10-10T04:21:01;19.56;48.95
68746;SHT31;55731;45.456;11.064;2022-10-10T04:23:39;19.53;46.84
68746;SHT31;55731;45.456;11.064;2022-10-10T04:26:16;19.54;46.04
68746;SHT31;55731;45.456;11.064;2022-10-10T04:28:54;19.54;45.00
68746;SHT31;55731;45.456;11.064;2022-10-10T04:31:31;19.56;44.78
68746;SHT31;55731;45.456;11.064;2022-10-10T04:34:07;19.56;44.74
68746;SHT31;55731;45.456;11.064;2022-10-10T04:36:45;19.57;44.96
68746;SHT31;55731;45.456;11.064;2022-10-10T04:39:22;19.56;44.83
68746;SHT31;55731;45.456;11.064;2022-10-10T04:41:59;19.57;44.88
68746;SHT31;55731;45.456;11.064;2022-10-10T04:44:37;19.58;44.83
68746;SHT31;55731;45.456;11.064;2022-10-10T04:47:13;19.59;44.91
68746;SHT31;55731;45.456;11.064;2022-10-10T04:49:50;19.59;44.79
68746;SHT31;55731;45.456;11.064;2022-10-10T04:52:27;19.58;44.90
68746;SHT31;55731;45.456;11.064;2022-10-10T04:55:04;19.60;45.04
68746;SHT31;55731;45.456;11.064;2022-10-10T04:57:43;19.60;45.50
68746;SHT31;55731;45.456;11.064;2022-10-10T05:00:20;19.59;46.39
68746;SHT31;55731;45.456;11.064;2022-10-10T05:02:57;19.58;46.51
68746;SHT31;55731;45.456;11.064;2022-10-10T05:05:34;19.57;46.93
68746;SHT31;55731;45.456;11.064;2022-10-10T05:08:10;19.55;47.45
68746;SHT31;55731;45.456;11.064;2022-10-10T05:10:47;19.54;47.75
68746;SHT31;55731;45.456;11.064;2022-10-10T05:13:25;19.51;47.95
68746;SHT31;55731;45.456;11.064;2022-10-10T05:16:02;19.50;47.27
68746;SHT31;55731;45.456;11.064;2022-10-10T05:18:38;19.49;46.54
68746;SHT31;55731;45.456;11.064;2022-10-10T05:21:14;19.50;46.82
68746;SHT31;55731;45.456;11.064;2022-10-10T05:23:51;19.51;46.94
68746;SHT31;55731;45.456;11.064;2022-10-10T05:26:28;19.50;46.51
68746;SHT31;55731;45.456;11.064;2022-10-10T05:29:10;19.50;46.80
68746;SHT31;55731;45.456;11.064;2022-10-10T05:31:47;19.47;46.51
68746;SHT31;55731;45.456;11.064;2022-10-10T05:34:24;19.45;46.68
68746;SHT31;55731;45.456;11.064;2022-10-10T05:37:02;19.45;46.73
68746;SHT31;55731;45.456;11.064;2022-10-10T05:39:39;19.48;46.64
68746;SHT31;55731;45.456;11.064;2022-10-10T05:42:21;19.51;46.60
68746;SHT31;55731;45.456;11.064;2022-10-10T05:44:58;19.52;46.87
68746;SHT31;55731;45.456;11.064;2022-10-10T05:47:37;19.53;47.12
68746;SHT31;55731;45.456;11.064;2022-10-10T05:50:17;19.55;47.37
68746;SHT31;55731;45.456;11.064;2022-10-10T05:53:03;19.53;47.40
68746;SHT31;55731;45.456;11.064;2022-10-10T05:55:40;19.54;47.47
68746;SHT31;55731;45.456;11.064;2022-10-10T05:58:17;19.53;47.66
68746;SHT31;55731;45.456;11.064;2022-10-10T06:01:00;19.54;47.88
68746;SHT31;55731;45.456;11.064;2022-10-10T06:03:40;19.52;48.15
68746;SHT31;55731;45.456;11.064;2022-10-10T06:06:20;19.50;48.08
68746;SHT31;55731;45.456;11.064;2022-10-10T06:08:57;19.48;48.15
68746;SHT31;55731;45.456;11.064;2022-10-10T06:11:34;19.45;48.73
68746;SHT31;55731;45.456;11.064;2022-10-10T06:14:12;19.43;49.48
68746;SHT31;55731;45.456;11.064;2022-10-10T06:16:48;19.39;50.23
68746;SHT31;55731;45.456;11.064;2022-10-10T06:19:26;19.34;50.72
68746;SHT31;55731;45.456;11.064;2022-10-10T06:22:03;19.31;51.12
68746;SHT31;55731;45.456;11.064;2022-10-10T06:24:39;19.29;51.47
68746;SHT31;55731;45.456;11.064;2022-10-10T06:27:20;19.26;51.76
68746;SHT31;55731;45.456;11.064;2022-10-10T06:29:57;19.24;52.03
68746;SHT31;55731;45.456;11.064;2022-10-10T06:32:34;19.23;52.27
68746;SHT31;55731;45.456;11.064;2022-10-10T06:35:11;19.20;52.53
68746;SHT31;55731;45.456;11.064;2022-10-10T06:37:48;19.18;52.80
68746;SHT31;55731;45.456;11.064;2022-10-10T06:40:26;19.16;52.84
68746;SHT31;55731;45.456;11.064;2022-10-10T06:43:02;19.13;52.91
68746;SHT31;55731;45.456;11.064;2022-10-10T06:45:41;19.10;53.07
68746;SHT31;55731;45.456;11.064;2022-10-10T06:48:19;19.07;53.21
68746;SHT31;55731;45.456;11.064;2022-10-10T06:50:59;19.06;53.23
68746;SHT31;55731;45.456;11.064;2022-10-10T06:53:37;19.07;53.36
68746;SHT31;55731;45.456;11.064;2022-10-10T06:56:14;19.07;53.32
68746;SHT31;55731;45.456;11.064;2022-10-10T06:58:55;19.06;53.20
68746;SHT31;55731;45.456;11.064;2022-10-10T07:01:31;19.06;53.16
68746;SHT31;55731;45.456;11.064;2022-10-10T07:04:07;19.07;53.10
68746;SHT31;55731;45.456;11.064;2022-10-10T07:06:46;19.08;53.15
68746;SHT31;55731;45.456;11.064;2022-10-10T07:09:22;19.11;53.25
68746;SHT31;55731;45.456;11.064;2022-10-10T07:12:00;19.12;53.22
68746;SHT31;55731;45.456;11.064;2022-10-10T07:14:36;19.13;52.99
68746;SHT31;55731;45.456;11.064;2022-10-10T07:17:13;19.11;53.27
68746;SHT31;55731;45.456;11.064;2022-10-10T07:19:49;19.11;53.47
68746;SHT31;55731;45.456;11.064;2022-10-10T07:22:26;19.14;53.40
68746;SHT31;55731;45.456;11.064;2022-10-10T07:25:03;19.17;53.26
68746;SHT31;55731;45.456;11.064;2022-10-10T07:27:42;19.18;53.24
68746;SHT31;55731;45.456;11.064;2022-10-10T07:30:19;19.20;53.08
68746;SHT31;55731;45.456;11.064;2022-10-10T07:32:56;19.21;52.59
68746;SHT31;55731;45.456;11.064;2022-10-10T07:35:32;19.23;52.82
68746;SHT31;55731;45.456;11.064;2022-10-10T07:38:10;19.21;53.25
68746;SHT31;55731;45.456;11.064;2022-10-10T07:40:48;19.17;53.34
68746;SHT31;55731;45.456;11.064;2022-10-10T07:43:25;19.16;53.72
68746;SHT31;55731;45.456;11.064;2022-10-10T07:46:02;19.19;53.93
68746;SHT31;55731;45.456;11.064;2022-10-10T07:48:44;19.18;53.72
68746;SHT31;55731;45.456;11.064;2022-10-10T07:51:20;19.16;53.75
68746;SHT31;55731;45.456;11.064;2022-10-10T07:53:58;19.18;53.74
68746;SHT31;55731;45.456;11.064;2022-10-10T07:56:35;19.19;53.88
68746;SHT31;55731;45.456;11.064;2022-10-10T07:59:11;19.21;53.86
68746;SHT31;55731;45.456;11.064;2022-10-10T08:01:48;19.25;53.92
68746;SHT31;55731;45.456;11.064;2022-10-10T08:04:24;19.26;53.96
68746;SHT31;55731;45.456;11.064;2022-10-10T08:07:00;19.30;54.00
68746;SHT31;55731;45.456;11.064;2022-10-10T08:09:37;19.35;53.84
68746;SHT31;55731;45.456;11.064;2022-10-10T08:12:14;19.39;53.67
68746;SHT31;55731;45.456;11.064;2022-10-10T08:14:51;19.44;53.39
68746;SHT31;55731;45.456;11.064;2022-10-10T08:17:28;19.50;53.21
68746;SHT31;55731;45.456;11.064;2022-10-10T08:20:05;19.56;53.03
68746;SHT31;55731;45.456;11.064;2022-10-10T08:22:43;19.59;52.82
68746;SHT31;55731;45.456;11.064;2022-10-10T08:25:20;19.61;52.43
68746;SHT31;55731;45.456;11.064;2022-10-10T08:27:56;19.65;52.40
68746;SHT31;55731;45.456;11.064;2022-10-10T08:30:37;19.70;52.53
68746;SHT31;55731;45.456;11.064;2022-10-10T08:33:14;19.75;52.58
68746;SHT31;55731;45.456;11.064;2022-10-10T08:35:51;19.81;52.53
68746;SHT31;55731;45.456;11.064;2022-10-10T08:38:28;19.85;52.68
68746;SHT31;55731;45.456;11.064;2022-10-10T08:41:08;19.90;52.64
68746;SHT31;55731;45.456;11.064;2022-10-10T08:43:57;19.92;52.63
68746;SHT31;55731;45.456;11.064;2022-10-10T08:46:43;19.94;52.30
68746;SHT31;55731;45.456;11.064;2022-10-10T08:49:26;19.98;51.87
68746;SHT31;55731;45.456;11.064;2022-10-10T08:52:11;20.03;51.32
68746;SHT31;55731;45.456;11.064;2022-10-10T08:55:00;20.06;51.40
68746;SHT31;55731;45.456;11.064;2022-10-10T08:57:45;20.11;51.53
68746;SHT31;55731;45.456;11.064;2022-10-10T09:00:29;20.17;51.21
68746;SHT31;55731;45.456;11.064;2022-10-10T09:03:16;20.21;50.83
68746;SHT31;55731;45.456;11.064;2022-10-10T09:06:03;20.25;50.34
68746;SHT31;55731;45.456;11.064;2022-10-10T09:09:09;20.26;50.22
68746;SHT31;55731;45.456;11.064;2022-10-10T09:12:02;20.32;50.62
68746;SHT31;55731;45.456;11.064;2022-10-10T09:14:54;20.36;50.61
68746;SHT31;55731;45.456;11.064;2022-10-10T09:17:44;20.39;50.47
68746;SHT31;55731;45.456;11.064;2022-10-10T09:23:27;20.43;50.40
68746;SHT31;55731;45.456;11.064;2022-10-10T09:26:12;20.47;50.36
68746;SHT31;55731;45.456;11.064;2022-10-10T09:28:54;20.50;50.41
68746;SHT31;55731;45.456;11.064;2022-10-10T09:31:36;20.52;50.36
68746;SHT31;55731;45.456;11.064;2022-10-10T09:34:17;20.56;50.14
68746;SHT31;55731;45.456;11.064;2022-10-10T09:37:08;20.60;49.90
68746;SHT31;55731;45.456;11.064;2022-10-10T09:40:17;20.64;49.86
68746;SHT31;55731;45.456;11.064;2022-10-10T09:42:57;20.67;49.71
68746;SHT31;55731;45.456;11.064;2022-10-10T09:45:43;20.69;49.60
68746;SHT31;55731;45.456;11.064;2022-10-10T09:48:27;20.70;49.46
68746;SHT31;55731;45.456;11.064;2022-10-10T09:51:11;20.72;49.44
68746;SHT31;55731;45.456;11.064;2022-10-10T09:53:49;20.77;49.52
68746;SHT31;55731;45.456;11.064;2022-10-10T09:56:26;20.80;49.47
68746;SHT31;55731;45.456;11.064;2022-10-10T09:59:08;20.83;49.74
68746;SHT31;55731;45.456;11.064;2022-10-10T10:02:13;20.83;49.60
68746;SHT31;55731;45.456;11.064;2022-10-10T10:04:52;20.85;49.43
68746;SHT31;55731;45.456;11.064;2022-10-10T10:07:28;20.84;49.33
68746;SHT31;55731;45.456;11.064;2022-10-10T10:10:18;20.85;49.27
68746;SHT31;55731;45.456;11.064;2022-10-10T10:12:57;20.90;48.96
68746;SHT31;55731;45.456;11.064;2022-10-10T10:15:42;20.94;48.71
68746;SHT31;55731;45.456;11.064;2022-10-10T10:18:27;21.01;48.48
68746;SHT31;55731;45.456;11.064;2022-10-10T10:21:25;21.08;48.39
68746;SHT31;55731;45.456;11.064;2022-10-10T10:24:21;21.15;48.37
68746;SHT31;55731;45.456;11.064;2022-10-10T10:27:15;21.22;48.16
68746;SHT31;55731;45.456;11.064;2022-10-10T10:29:53;21.28;48.14
68746;SHT31;55731;45.456;11.064;2022-10-10T10:35:31;21.40;47.13
68746;SHT31;55731;45.456;11.064;2022-10-10T10:38:19;21.44;47.14
68746;SHT31;55731;45.456;11.064;2022-10-10T10:41:13;21.52;47.50
68746;SHT31;55731;45.456;11.064;2022-10-10T10:44:04;21.64;47.69
68746;SHT31;55731;45.456;11.064;2022-10-10T10:47:05;21.74;47.24
68746;SHT31;55731;45.456;11.064;2022-10-10T10:50:10;21.82;46.73
68746;SHT31;55731;45.456;11.064;2022-10-10T10:53:10;21.91;46.47
68746;SHT31;55731;45.456;11.064;2022-10-10T10:55:56;21.98;46.28
68746;SHT31;55731;45.456;11.064;2022-10-10T10:58:56;22.04;46.28
68746;SHT31;55731;45.456;11.064;2022-10-10T11:02:24;22.12;46.21
68746;SHT31;55731;45.456;11.064;2022-10-10T11:05:33;22.23;46.23
68746;SHT31;55731;45.456;11.064;2022-10-10T11:11:21;22.41;45.99
68746;SHT31;55731;45.456;11.064;2022-10-10T11:14:19;22.50;45.71
68746;SHT31;55731;45.456;11.064;2022-10-10T11:17:13;22.66;45.42
68746;SHT31;55731;45.456;11.064;2022-10-10T11:20:07;22.78;45.18
68746;SHT31;55731;45.456;11.064;2022-10-10T11:22:57;22.86;44.82
68746;SHT31;55731;45.456;11.064;2022-10-10T11:25:42;22.90;44.79
68746;SHT31;55731;45.456;11.064;2022-10-10T11:28:25;22.92;44.34
68746;SHT31;55731;45.456;11.064;2022-10-10T11:31:09;22.95;44.33
68746;SHT31;55731;45.456;11.064;2022-10-10T11:33:53;23.05;44.20
68746;SHT31;55731;45.456;11.064;2022-10-10T11:36:38;23.16;44.07
68746;SHT31;55731;45.456;11.064;2022-10-10T11:39:17;23.20;44.11
68746;SHT31;55731;45.456;11.064;2022-10-10T11:42:01;23.24;43.19
68746;SHT31;55731;45.456;11.064;2022-10-10T11:44:50;23.23;43.28
68746;SHT31;55731;45.456;11.064;2022-10-10T11:47:33;23.26;43.14
68746;SHT31;55731;45.456;11.064;2022-10-10T11:50:15;23.29;43.15
68746;SHT31;55731;45.456;11.064;2022-10-10T11:52:57;23.31;43.13
68746;SHT31;55731;45.456;11.064;2022-10-10T11:55:46;23.39;43.38
68746;SHT31;55731;45.456;11.064;2022-10-10T11:58:34;23.48;43.19
68746;SHT31;55731;45.456;11.064;2022-10-10T12:01:17;23.61;43.02
68746;SHT31;55731;45.456;11.064;2022-10-10T12:04:00;23.71;42.93
68746;SHT31;55731;45.456;11.064;2022-10-10T12:06:37;23.83;42.62
68746;SHT31;55731;45.456;11.064;2022-10-10T12:09:19;24.00;42.34
68746;SHT31;55731;45.456;11.064;2022-10-10T12:12:01;24.16;41.76
68746;SHT31;55731;45.456;11.064;2022-10-10T12:14:44;24.29;41.43
68746;SHT31;55731;45.456;11.064;2022-10-10T12:17:25;24.35;41.19
68746;SHT31;55731;45.456;11.064;2022-10-10T12:23:20;24.36;41.17
68746;SHT31;55731;45.456;11.064;2022-10-10T12:26:02;24.35;41.03
68746;SHT31;55731;45.456;11.064;2022-10-10T12:29:00;24.24;40.61
68746;SHT31;55731;45.456;11.064;2022-10-10T12:31:40;24.10;40.84
68746;SHT31;55731;45.456;11.064;2022-10-10T12:34:43;24.07;41.16
68746;SHT31;55731;45.456;11.064;2022-10-10T12:37:33;24.10;41.28
68746;SHT31;55731;45.456;11.064;2022-10-10T12:44:17;24.25;41.04
68746;SHT31;55731;45.456;11.064;2022-10-10T12:47:23;24.35;40.71
68746;SHT31;55731;45.456;11.064;2022-10-10T12:50:33;24.43;40.33
68746;SHT31;55731;45.456;11.064;2022-10-10T12:53:15;24.37;40.37
68746;SHT31;55731;45.456;11.064;2022-10-10T12:55:56;24.30;40.68
68746;SHT31;55731;45.456;11.064;2022-10-10T12:58:36;24.29;40.48
68746;SHT31;55731;45.456;11.064;2022-10-10T13:01:22;24.26;40.07
68746;SHT31;55731;45.456;11.064;2022-10-10T13:04:05;24.24;40.46
68746;SHT31;55731;45.456;11.064;2022-10-10T13:06:45;24.32;40.30
68746;SHT31;55731;45.456;11.064;2022-10-10T13:09:29;24.32;39.99
68746;SHT31;55731;45.456;11.064;2022-10-10T13:12:17;24.33;40.25
68746;SHT31;55731;45.456;11.064;2022-10-10T13:14:58;24.38;40.50
68746;SHT31;55731;45.456;11.064;2022-10-10T13:17:47;24.47;40.58
68746;SHT31;55731;45.456;11.064;2022-10-10T13:20:30;24.54;40.70
68746;SHT31;55731;45.456;11.064;2022-10-10T13:23:09;24.63;40.32
68746;SHT31;55731;45.456;11.064;2022-10-10T13:25:47;24.73;40.25
68746;SHT31;55731;45.456;11.064;2022-10-10T13:28:24;24.79;40.11
68746;SHT31;55731;45.456;11.064;2022-10-10T13:31:02;24.83;40.00
68746;SHT31;55731;45.456;11.064;2022-10-10T13:33:44;24.85;40.06
68746;SHT31;55731;45.456;11.064;2022-10-10T13:36:21;24.84;40.17
68746;SHT31;55731;45.456;11.064;2022-10-10T13:39:02;24.78;40.31
68746;SHT31;55731;45.456;11.064;2022-10-10T13:41:46;24.70;40.39
68746;SHT31;55731;45.456;11.064;2022-10-10T13:44:25;24.60;40.77
68746;SHT31;55731;45.456;11.064;2022-10-10T13:50:24;24.44;41.14
68746;SHT31;55731;45.456;11.064;2022-10-10T13:53:22;24.34;41.32
68746;SHT31;55731;45.456;11.064;2022-10-10T13:56:05;24.22;41.47
68746;SHT31;55731;45.456;11.064;2022-10-10T13:58:50;24.13;41.58
68746;SHT31;55731;45.456;11.064;2022-10-10T14:01:36;24.08;41.91
68746;SHT31;55731;45.456;11.064;2022-10-10T14:04:18;24.06;42.10
68746;SHT31;55731;45.456;11.064;2022-10-10T14:07:02;24.04;42.02
68746;SHT31;55731;45.456;11.064;2022-10-10T14:09:42;24.00;42.33
68746;SHT31;55731;45.456;11.064;2022-10-10T14:12:28;23.99;42.56
68746;SHT31;55731;45.456;11.064;2022-10-10T14:18:12;23.89;42.13
68746;SHT31;55731;45.456;11.064;2022-10-10T14:20:52;23.83;42.27
68746;SHT31;55731;45.456;11.064;2022-10-10T14:23:29;23.79;42.33
68746;SHT31;55731;45.456;11.064;2022-10-10T14:26:11;23.78;42.42
68746;SHT31;55731;45.456;11.064;2022-10-10T14:28:49;23.72;42.61
68746;SHT31;55731;45.456;11.064;2022-10-10T14:31:26;23.64;43.03
68746;SHT31;55731;45.456;11.064;2022-10-10T14:34:03;23.56;42.52
68746;SHT31;55731;45.456;11.064;2022-10-10T14:36:43;23.47;42.89
68746;SHT31;55731;45.456;11.064;2022-10-10T14:39:20;23.40;42.84
68746;SHT31;55731;45.456;11.064;2022-10-10T14:41:58;23.34;42.99
68746;SHT31;55731;45.456;11.064;2022-10-10T14:44:42;23.28;43.05
68746;SHT31;55731;45.456;11.064;2022-10-10T14:47:19;23.23;43.33
68746;SHT31;55731;45.456;11.064;2022-10-10T14:49:56;23.23;43.75
68746;SHT31;55731;45.456;11.064;2022-10-10T14:52:32;23.24;43.91
68746;SHT31;55731;45.456;11.064;2022-10-10T14:55:10;23.23;43.87
68746;SHT31;55731;45.456;11.064;2022-10-10T14:57:49;23.19;43.73
68746;SHT31;55731;45.456;11.064;2022-10-10T15:00:25;23.11;43.65
68746;SHT31;55731;45.456;11.064;2022-10-10T15:03:02;23.07;43.76
68746;SHT31;55731;45.456;11.064;2022-10-10T15:05:39;23.05;43.94
68746;SHT31;55731;45.456;11.064;2022-10-10T15:08:16;23.05;44.10
68746;SHT31;55731;45.456;11.064;2022-10-10T15:10:54;23.06;44.29
68746;SHT31;55731;45.456;11.064;2022-10-10T15:13:32;23.07;44.57
68746;SHT31;55731;45.456;11.064;2022-10-10T15:16:09;23.03;44.36
68746;SHT31;55731;45.456;11.064;2022-10-10T15:18:45;22.99;44.23
68746;SHT31;55731;45.456;11.064;2022-10-10T15:21:22;22.97;44.39
68746;SHT31;55731;45.456;11.064;2022-10-10T15:23:59;22.97;44.74
68746;SHT31;55731;45.456;11.064;2022-10-10T15:26:37;22.98;44.86
68746;SHT31;55731;45.456;11.064;2022-10-10T15:29:14;22.98;44.99
68746;SHT31;55731;45.456;11.064;2022-10-10T15:31:51;22.98;45.15
68746;SHT31;55731;45.456;11.064;2022-10-10T15:34:27;22.98;45.29
68746;SHT31;55731;45.456;11.064;2022-10-10T15:37:05;22.94;45.00
68746;SHT31;55731;45.456;11.064;2022-10-10T15:39:41;22.93;45.15
68746;SHT31;55731;45.456;11.064;2022-10-10T15:42:18;22.91;45.15
68746;SHT31;55731;45.456;11.064;2022-10-10T15:44:55;22.93;45.17
68746;SHT31;55731;45.456;11.064;2022-10-10T15:47:32;22.92;45.09
68746;SHT31;55731;45.456;11.064;2022-10-10T15:50:14;22.91;44.66
68746;SHT31;55731;45.456;11.064;2022-10-10T15:52:54;22.88;44.71
68746;SHT31;55731;45.456;11.064;2022-10-10T15:55:31;22.85;44.94
68746;SHT31;55731;45.456;11.064;2022-10-10T15:58:14;22.81;45.01
68746;SHT31;55731;45.456;11.064;2022-10-10T16:00:49;22.75;45.12
68746;SHT31;55731;45.456;11.064;2022-10-10T16:03:27;22.71;45.47
68746;SHT31;55731;45.456;11.064;2022-10-10T16:06:04;22.67;45.62
68746;SHT31;55731;45.456;11.064;2022-10-10T16:08:43;22.63;45.62
68746;SHT31;55731;45.456;11.064;2022-10-10T16:11:32;22.57;45.92
68746;SHT31;55731;45.456;11.064;2022-10-10T16:14:09;22.51;46.22
68746;SHT31;55731;45.456;11.064;2022-10-10T16:16:46;22.45;46.35
68746;SHT31;55731;45.456;11.064;2022-10-10T16:19:22;22.40;46.57
68746;SHT31;55731;45.456;11.064;2022-10-10T16:21:59;22.36;46.69
68746;SHT31;55731;45.456;11.064;2022-10-10T16:24:36;22.31;46.89
68746;SHT31;55731;45.456;11.064;2022-10-10T16:27:33;22.24;47.09
68746;SHT31;55731;45.456;11.064;2022-10-10T16:30:11;22.19;47.42
68746;SHT31;55731;45.456;11.064;2022-10-10T16:32:48;22.14;47.67
68746;SHT31;55731;45.456;11.064;2022-10-10T16:35:25;22.10;47.89
68746;SHT31;55731;45.456;11.064;2022-10-10T16:38:01;22.08;48.12
68746;SHT31;55731;45.456;11.064;2022-10-10T16:40:38;22.03;48.29
68746;SHT31;55731;45.456;11.064;2022-10-10T16:43:15;22.00;49.07
68746;SHT31;55731;45.456;11.064;2022-10-10T16:45:51;21.97;50.64
68746;SHT31;55731;45.456;11.064;2022-10-10T16:48:31;21.90;51.54
68746;SHT31;55731;45.456;11.064;2022-10-10T16:51:11;21.83;52.08
68746;SHT31;55731;45.456;11.064;2022-10-10T16:53:51;21.75;52.47
68746;SHT31;55731;45.456;11.064;2022-10-10T16:56:28;21.68;52.68
68746;SHT31;55731;45.456;11.064;2022-10-10T16:59:05;21.59;52.85
68746;SHT31;55731;45.456;11.064;2022-10-10T17:01:41;21.50;53.17
68746;SHT31;55731;45.456;11.064;2022-10-10T17:04:19;21.38;53.36
68746;SHT31;55731;45.456;11.064;2022-10-10T17:06:57;21.30;53.60
68746;SHT31;55731;45.456;11.064;2022-10-10T17:09:35;21.19;53.96
68746;SHT31;55731;45.456;11.064;2022-10-10T17:12:12;21.09;54.28